Time;durP1;ratioP1;P1;durP2;ratioP2;P2;SDS_P1;SDS_P2;PMS_P1;PMS_P2;Temp;Humidity;BMP_temperature;BMP_pressure;BME280_temperature;BME280_humidity;BME280_pressure;Samples;Min_cycle;Max_cycle;Signal;HPM_P1;HPM_P2
2021/11/29 00:02:28;;;;;;;22.95;13.13;;;22.50;46.00;;;;;;6131333;28;83371;-67
2021/11/29 00:05:28;;;;;;;23.15;13.88;;;22.50;46.00;;;;;;6127048;28;83291;-69
2021/11/29 00:08:29;;;;;;;24.77;13.70;;;22.50;46.10;;;;;;6131105;28;84688;-69
2021/11/29 00:11:29;;;;;;;21.65;13.18;;;22.50;46.10;;;;;;6128280;28;85888;-69
2021/11/29 00:14:30;;;;;;;23.63;13.80;;;22.50;45.90;;;;;;6128565;28;83293;-68
2021/11/29 00:17:30;;;;;;;26.88;14.07;;;22.50;45.70;;;;;;6130979;28;84174;-69
2021/11/29 00:20:31;;;;;;;24.90;13.50;;;22.50;45.10;;;;;;6132759;28;83455;-70
2021/11/29 00:23:31;;;;;;;25.80;13.90;;;22.50;44.90;;;;;;6126113;28;89768;-69
2021/11/29 00:26:32;;;;;;;21.17;12.82;;;22.50;44.90;;;;;;6131841;28;83055;-69
2021/11/29 00:29:32;;;;;;;20.17;12.00;;;22.50;45.50;;;;;;6130457;28;82930;-70
2021/11/29 00:32:33;;;;;;;24.90;13.77;;;22.50;46.00;;;;;;6131604;28;83225;-69
2021/11/29 00:35:33;;;;;;;23.25;13.30;;;22.50;45.40;;;;;;6129921;28;83062;-69
2021/11/29 00:38:34;;;;;;;21.33;12.23;;;22.40;45.50;;;;;;6139700;28;83270;-69
2021/11/29 00:41:34;;;;;;;21.88;13.25;;;22.40;45.10;;;;;;6139600;28;83074;-69
2021/11/29 00:44:35;;;;;;;21.42;12.18;;;22.40;46.00;;;;;;6141404;28;82848;-69
2021/11/29 00:47:35;;;;;;;23.92;13.80;;;22.40;45.90;;;;;;6128361;28;84288;-69
2021/11/29 00:50:39;;;;;;;22.40;12.85;;;22.40;44.90;;;;;;6134903;28;84330;-69
2021/11/29 00:53:39;;;;;;;26.27;13.52;;;22.40;45.40;;;;;;6133765;28;82790;-69
2021/11/29 00:56:40;;;;;;;23.48;13.60;;;22.40;45.70;;;;;;6126872;28;83224;-69
2021/11/29 00:59:46;;;;;;;23.65;13.88;;;22.40;45.90;;;;;;6135467;28;83127;-69
2021/11/29 01:02:46;;;;;;;18.83;11.55;;;22.40;45.50;;;;;;6136961;28;83601;-69
2021/11/29 01:05:47;;;;;;;20.60;11.20;;;22.40;45.70;;;;;;6129202;28;83852;-69
2021/11/29 01:08:47;;;;;;;21.67;11.50;;;22.40;46.80;;;;;;6135496;28;84241;-69
2021/11/29 01:11:48;;;;;;;26.70;13.27;;;22.40;46.70;;;;;;6136290;28;83121;-68
2021/11/29 01:14:48;;;;;;;22.38;12.02;;;22.40;47.60;;;;;;6132840;28;83440;-68
2021/11/29 01:17:49;;;;;;;21.73;12.23;;;22.40;47.30;;;;;;6132100;28;83082;-69
2021/11/29 01:20:49;;;;;;;21.40;12.20;;;22.40;46.90;;;;;;6147488;28;83633;-69
2021/11/29 01:23:52;;;;;;;21.50;11.57;;;22.40;46.90;;;;;;6136418;28;83056;-68
2021/11/29 01:26:52;;;;;;;22.33;12.60;;;22.40;46.90;;;;;;6133846;28;83168;-68
2021/11/29 01:29:53;;;;;;;17.23;10.70;;;22.40;47.00;;;;;;6134490;28;84297;-69
2021/11/29 01:32:53;;;;;;;19.95;11.85;;;22.40;47.20;;;;;;6135775;28;83326;-69
2021/11/29 01:35:54;;;;;;;19.45;11.05;;;22.40;46.80;;;;;;6132886;28;82862;-69
2021/11/29 01:38:54;;;;;;;22.80;11.32;;;22.30;46.20;;;;;;6141849;28;82995;-69
2021/11/29 01:41:55;;;;;;;19.30;11.55;;;22.40;45.40;;;;;;6143394;28;82850;-68
2021/11/29 01:44:57;;;;;;;19.00;10.98;;;22.40;45.60;;;;;;6141693;28;83315;-68
2021/11/29 01:47:57;;;;;;;18.85;11.18;;;22.40;45.80;;;;;;6133604;28;83063;-68
2021/11/29 01:50:58;;;;;;;20.77;11.98;;;22.40;45.90;;;;;;6134354;28;84240;-68
2021/11/29 01:53:58;;;;;;;21.17;11.90;;;22.40;46.20;;;;;;6133195;28;82817;-68
2021/11/29 01:56:59;;;;;;;21.10;11.73;;;22.40;45.30;;;;;;6125774;28;82885;-69
2021/11/29 01:59:59;;;;;;;20.40;11.55;;;22.40;45.40;;;;;;6131658;28;83067;-68
2021/11/29 02:03:00;;;;;;;19.92;10.95;;;22.40;45.30;;;;;;6135485;28;84200;-68
2021/11/29 02:06:00;;;;;;;18.88;10.38;;;22.40;45.60;;;;;;6134867;28;84232;-68
2021/11/29 02:09:01;;;;;;;18.38;10.70;;;22.40;45.90;;;;;;6134095;28;83144;-69
2021/11/29 02:12:01;;;;;;;18.13;10.70;;;22.40;45.20;;;;;;6130926;28;84390;-69
2021/11/29 02:15:02;;;;;;;19.10;10.98;;;22.40;44.70;;;;;;6127918;28;83342;-71
2021/11/29 02:18:02;;;;;;;17.55;10.32;;;22.30;45.30;;;;;;6127127;28;82900;-69
2021/11/29 02:21:03;;;;;;;16.13;9.57;;;22.30;45.40;;;;;;6133897;28;83174;-69
2021/11/29 02:24:03;;;;;;;17.23;10.18;;;22.40;46.40;;;;;;6136975;28;84511;-68
2021/11/29 02:27:04;;;;;;;14.48;8.80;;;22.30;46.50;;;;;;6133896;28;82983;-69
2021/11/29 02:30:04;;;;;;;14.90;8.77;;;22.30;46.30;;;;;;6140052;28;82823;-69
2021/11/29 02:33:05;;;;;;;13.23;8.45;;;22.40;46.90;;;;;;6134239;28;81450;-69
2021/11/29 02:36:05;;;;;;;15.50;9.43;;;22.30;46.40;;;;;;6136044;28;81763;-69
2021/11/29 02:39:06;;;;;;;15.77;9.30;;;22.30;46.00;;;;;;6139323;28;80982;-68
2021/11/29 02:42:06;;;;;;;12.93;7.95;;;22.30;46.20;;;;;;6147351;28;82983;-68
2021/11/29 02:45:07;;;;;;;13.35;8.50;;;22.30;45.80;;;;;;6139251;28;81128;-68
2021/11/29 02:48:08;;;;;;;18.27;9.63;;;22.30;46.80;;;;;;6140310;28;81244;-68
2021/11/29 02:51:08;;;;;;;13.52;8.85;;;22.30;46.70;;;;;;6125914;28;80121;-69
2021/11/29 02:54:09;;;;;;;14.13;8.48;;;22.30;45.50;;;;;;6136567;28;80922;-70
2021/11/29 02:57:09;;;;;;;14.73;8.95;;;22.30;45.30;;;;;;6132066;28;80092;-69
2021/11/29 03:00:10;;;;;;;16.98;9.40;;;22.30;46.30;;;;;;6133168;28;80308;-70
2021/11/29 03:03:10;;;;;;;15.90;8.85;;;22.30;45.30;;;;;;6137552;28;80990;-69
2021/11/29 03:06:11;;;;;;;12.18;8.27;;;22.30;44.90;;;;;;6130566;28;80881;-69
2021/11/29 03:09:11;;;;;;;15.52;8.82;;;22.30;44.70;;;;;;6141068;28;80468;-69
2021/11/29 03:12:12;;;;;;;14.90;8.57;;;22.30;43.90;;;;;;6134746;28;81017;-68
2021/11/29 03:15:12;;;;;;;15.40;8.98;;;22.30;43.40;;;;;;6134137;28;80575;-68
2021/11/29 03:18:13;;;;;;;14.88;9.45;;;22.30;42.90;;;;;;6135472;28;80564;-69
2021/11/29 03:21:17;;;;;;;14.32;8.60;;;22.40;43.10;;;;;;6124395;28;80394;-68
2021/11/29 03:24:17;;;;;;;12.93;8.15;;;22.40;43.10;;;;;;6131825;28;80629;-68
2021/11/29 03:27:19;;;;;;;12.90;7.97;;;22.50;42.80;;;;;;6137027;28;80435;-68
2021/11/29 03:30:20;;;;;;;15.27;8.57;;;22.50;42.70;;;;;;6136075;28;81269;-69
2021/11/29 03:33:20;;;;;;;18.00;9.50;;;22.50;42.50;;;;;;6136139;28;80957;-68
2021/11/29 03:36:21;;;;;;;12.48;8.02;;;22.60;42.50;;;;;;6120716;28;83072;-68
2021/11/29 03:39:21;;;;;;;14.77;8.07;;;22.60;42.70;;;;;;6128283;28;80419;-69
2021/11/29 03:42:22;;;;;;;12.63;7.78;;;22.60;42.70;;;;;;6137627;28;80608;-68
2021/11/29 03:45:22;;;;;;;11.98;7.75;;;22.60;42.60;;;;;;6137401;28;80660;-68
2021/11/29 03:48:23;;;;;;;14.02;8.25;;;22.70;42.90;;;;;;6130646;28;81587;-69
2021/11/29 03:51:24;;;;;;;15.15;7.82;;;22.70;42.90;;;;;;6138823;28;80528;-68
2021/11/29 03:54:25;;;;;;;11.15;7.38;;;22.70;42.90;;;;;;6122810;28;81487;-68
2021/11/29 03:57:25;;;;;;;11.50;7.35;;;22.70;42.90;;;;;;6136644;28;81009;-68
2021/11/29 04:00:26;;;;;;;11.43;7.25;;;22.80;43.10;;;;;;6134420;28;81591;-68
2021/11/29 04:03:26;;;;;;;11.43;7.22;;;22.80;43.10;;;;;;6129078;28;80411;-67
2021/11/29 04:06:27;;;;;;;11.38;7.47;;;22.80;43.10;;;;;;6132960;28;80837;-69
2021/11/29 04:09:27;;;;;;;12.95;7.78;;;22.80;43.10;;;;;;6135607;28;81761;-68
2021/11/29 04:12:28;;;;;;;13.30;7.60;;;22.80;43.10;;;;;;6134691;28;80769;-68
2021/11/29 04:15:28;;;;;;;11.88;7.18;;;22.80;43.20;;;;;;6134676;28;80389;-67
2021/11/29 04:18:29;;;;;;;11.82;7.97;;;22.80;43.10;;;;;;6131632;28;81420;-69
2021/11/29 04:21:30;;;;;;;13.70;7.88;;;22.80;42.90;;;;;;6128003;28;80748;-67
2021/11/29 04:24:30;;;;;;;12.65;7.75;;;22.80;43.00;;;;;;6122779;28;81030;-67
2021/11/29 04:27:31;;;;;;;12.18;7.88;;;22.90;42.80;;;;;;6135216;28;81236;-66
2021/11/29 04:30:32;;;;;;;11.07;7.75;;;22.90;42.70;;;;;;6130788;28;80937;-67
2021/11/29 04:33:32;;;;;;;12.85;7.50;;;22.90;42.70;;;;;;6134010;28;80733;-66
2021/11/29 04:36:34;;;;;;;11.40;7.50;;;22.90;42.90;;;;;;6131467;28;80471;-69
2021/11/29 04:39:35;;;;;;;10.32;7.47;;;22.90;42.70;;;;;;6129008;28;82511;-66
2021/11/29 04:42:35;;;;;;;11.50;7.22;;;22.90;42.50;;;;;;6128049;28;81146;-66
2021/11/29 04:45:36;;;;;;;12.45;8.30;;;22.90;42.40;;;;;;6134791;28;80432;-67
2021/11/29 04:48:36;;;;;;;15.43;8.20;;;23.00;42.40;;;;;;6135277;28;80372;-67
2021/11/29 04:51:37;;;;;;;12.02;7.75;;;23.00;42.60;;;;;;6134975;28;80701;-66
2021/11/29 04:54:38;;;;;;;11.82;7.50;;;23.00;42.50;;;;;;6130349;28;80379;-66
2021/11/29 04:57:38;;;;;;;11.88;7.75;;;23.00;42.40;;;;;;6135730;28;80353;-67
2021/11/29 05:00:39;;;;;;;14.95;7.93;;;23.00;42.10;;;;;;6134097;28;80333;-66
2021/11/29 05:03:39;;;;;;;11.90;7.95;;;23.10;42.10;;;;;;6134625;28;80083;-67
2021/11/29 05:06:40;;;;;;;12.70;7.70;;;23.10;41.70;;;;;;6131768;28;81121;-67
2021/11/29 05:09:42;;;;;;;13.68;7.28;;;23.10;42.00;;;;;;6127564;28;81002;-67
2021/11/29 05:12:42;;;;;;;13.38;7.70;;;23.10;41.80;;;;;;6129667;28;80193;-66
2021/11/29 05:15:43;;;;;;;12.27;8.13;;;23.10;41.70;;;;;;6135640;28;80810;-66
2021/11/29 05:18:43;;;;;;;14.10;8.13;;;23.10;41.70;;;;;;6138172;28;81191;-67
2021/11/29 05:21:44;;;;;;;11.77;7.28;;;23.10;41.70;;;;;;6139615;28;80201;-68
2021/11/29 05:24:44;;;;;;;14.30;7.97;;;23.10;41.50;;;;;;6128242;28;80014;-68
2021/11/29 05:27:45;;;;;;;20.67;8.13;;;23.20;41.50;;;;;;6135363;28;80251;-67
2021/11/29 05:30:45;;;;;;;13.48;7.57;;;23.10;42.10;;;;;;6138305;28;81147;-67
2021/11/29 05:33:46;;;;;;;10.77;7.25;;;23.10;42.90;;;;;;6136871;28;80453;-67
2021/11/29 05:36:46;;;;;;;9.85;6.13;;;23.10;42.90;;;;;;6137511;28;80961;-67
2021/11/29 05:39:47;;;;;;;10.23;6.90;;;23.10;42.80;;;;;;6139003;28;81491;-68
2021/11/29 05:42:48;;;;;;;10.35;6.70;;;23.10;42.60;;;;;;6138359;28;80600;-66
2021/11/29 05:45:48;;;;;;;11.63;7.45;;;23.10;42.50;;;;;;6137177;28;82613;-66
2021/11/29 05:48:49;;;;;;;11.32;6.47;;;23.10;42.50;;;;;;6138781;28;81446;-67
2021/11/29 05:51:49;;;;;;;10.63;6.15;;;23.10;42.50;;;;;;6137944;28;81535;-67
2021/11/29 05:54:50;;;;;;;11.77;6.78;;;23.10;42.50;;;;;;6136341;28;80860;-67
2021/11/29 05:57:50;;;;;;;9.07;6.40;;;23.10;42.70;;;;;;6136214;28;81564;-67
2021/11/29 06:00:51;;;;;;;12.68;5.95;;;23.10;42.90;;;;;;6138527;28;81533;-66
2021/11/29 06:03:51;;;;;;;10.50;5.93;;;23.10;43.40;;;;;;6134786;28;80112;-66
2021/11/29 06:06:52;;;;;;;15.23;6.50;;;23.10;43.60;;;;;;6138655;28;81865;-68
2021/11/29 06:09:52;;;;;;;9.48;6.28;;;23.10;43.80;;;;;;6138656;28;82993;-66
2021/11/29 06:12:53;;;;;;;11.95;6.50;;;23.10;43.80;;;;;;6135117;28;81377;-66
2021/11/29 06:15:53;;;;;;;9.43;5.53;;;23.10;44.10;;;;;;6138106;28;80411;-69
2021/11/29 06:18:54;;;;;;;6.97;5.03;;;23.10;44.40;;;;;;6133354;28;80399;-68
2021/11/29 06:21:54;;;;;;;11.00;5.45;;;23.10;44.70;;;;;;6136141;28;81628;-66
2021/11/29 06:24:55;;;;;;;9.15;5.47;;;23.10;44.90;;;;;;6125942;28;80718;-65
2021/11/29 06:27:55;;;;;;;7.47;5.43;;;23.10;45.10;;;;;;6136465;28;81444;-68
2021/11/29 06:30:56;;;;;;;9.70;5.05;;;23.00;45.20;;;;;;6133791;28;81830;-68
2021/11/29 06:33:56;;;;;;;8.75;5.07;;;23.00;45.40;;;;;;6134584;28;81322;-68
2021/11/29 06:36:57;;;;;;;9.23;4.72;;;23.00;45.40;;;;;;6137038;28;82801;-67
2021/11/29 06:39:58;;;;;;;6.00;4.03;;;23.00;46.50;;;;;;6136293;28;81092;-67
2021/11/29 06:42:59;;;;;;;7.25;5.13;;;22.90;47.30;;;;;;6132073;28;80531;-67
2021/11/29 06:45:59;;;;;;;6.90;4.10;;;22.80;48.00;;;;;;6133553;28;80658;-68
2021/11/29 06:49:00;;;;;;;5.85;3.42;;;22.90;48.50;;;;;;6133563;28;80716;-67
2021/11/29 06:52:05;;;;;;;4.35;3.47;;;22.90;48.70;;;;;;6137269;28;81161;-66
2021/11/29 06:55:05;;;;;;;5.07;3.30;;;22.80;49.00;;;;;;6135601;28;80652;-68
2021/11/29 06:58:06;;;;;;;33.35;14.75;;;22.90;49.50;;;;;;6129760;28;80491;-67
2021/11/29 07:01:06;;;;;;;118.82;55.88;;;22.80;49.50;;;;;;6129222;28;82943;-67
2021/11/29 07:04:07;;;;;;;193.20;90.22;;;22.70;49.80;;;;;;6128423;28;83104;-67
2021/11/29 07:07:07;;;;;;;318.77;147.48;;;22.60;50.50;;;;;;6126348;28;83968;-67
2021/11/29 07:10:08;;;;;;;274.55;128.18;;;22.60;51.00;;;;;;6122658;28;85850;-68
2021/11/29 07:13:08;;;;;;;275.77;122.63;;;22.60;51.50;;;;;;6127122;28;86722;-66
2021/11/29 07:16:09;;;;;;;188.75;88.93;;;22.60;51.70;;;;;;6123081;28;86189;-69
2021/11/29 07:19:09;;;;;;;164.40;75.30;;;22.60;51.90;;;;;;6130014;28;85431;-68
2021/11/29 07:22:10;;;;;;;125.20;55.35;;;22.60;51.70;;;;;;6129518;28;84444;-67
2021/11/29 07:25:10;;;;;;;127.90;55.28;;;22.60;51.60;;;;;;6126980;28;83363;-67
2021/11/29 07:28:11;;;;;;;142.48;73.75;;;22.60;51.50;;;;;;6128329;28;84048;-66
2021/11/29 07:31:11;;;;;;;169.93;93.88;;;22.60;52.20;;;;;;6127676;28;90500;-66
2021/11/29 07:34:12;;;;;;;143.32;80.55;;;22.40;52.40;;;;;;6128274;28;83125;-67
2021/11/29 07:37:15;;;;;;;165.27;89.20;;;22.50;52.20;;;;;;6129530;28;85604;-68
2021/11/29 07:40:16;;;;;;;226.43;124.22;;;22.50;52.30;;;;;;6125154;28;84269;-67
2021/11/29 07:43:17;;;;;;;224.23;122.38;;;22.60;52.20;;;;;;6126165;28;85754;-66
2021/11/29 07:46:18;;;;;;;225.82;120.95;;;22.60;51.90;;;;;;6121607;28;86377;-68
2021/11/29 07:49:19;;;;;;;198.90;103.82;;;22.60;51.50;;;;;;6120765;28;86545;-70
2021/11/29 07:52:19;;;;;;;152.52;76.97;;;22.70;51.60;;;;;;6123946;28;87309;-67
2021/11/29 07:55:23;;;;;;;134.10;69.55;;;22.70;51.50;;;;;;6130729;28;85314;-69
2021/11/29 07:58:24;;;;;;;101.65;53.88;;;22.70;52.00;;;;;;6129996;28;82847;-69
2021/11/29 08:01:24;;;;;;;108.30;49.15;;;22.70;51.20;;;;;;6128570;28;83177;-67
2021/11/29 08:04:25;;;;;;;80.32;41.30;;;22.70;51.20;;;;;;6124900;28;85080;-66
2021/11/29 08:07:25;;;;;;;77.25;40.60;;;22.70;51.40;;;;;;6133375;28;86160;-67
2021/11/29 08:10:26;;;;;;;65.90;35.10;;;22.60;51.30;;;;;;6125072;28;84393;-69
2021/11/29 08:13:27;;;;;;;60.35;30.52;;;22.60;51.00;;;;;;6125538;28;84423;-67
2021/11/29 08:16:27;;;;;;;51.97;27.85;;;22.60;51.20;;;;;;6127868;28;84323;-67
2021/11/29 08:19:28;;;;;;;47.25;24.45;;;22.60;51.20;;;;;;6110253;28;83044;-67
2021/11/29 08:22:29;;;;;;;46.00;23.60;;;22.60;51.10;;;;;;6119748;28;84823;-66
2021/11/29 08:25:30;;;;;;;45.75;22.40;;;22.60;51.40;;;;;;6124836;28;83865;-68
2021/11/29 08:28:31;;;;;;;41.55;21.50;;;22.60;51.50;;;;;;6119326;28;83169;-66
2021/11/29 08:31:31;;;;;;;39.72;19.98;;;22.60;51.50;;;;;;6126586;28;88715;-67
2021/11/29 08:34:33;;;;;;;32.75;17.02;;;22.60;51.50;;;;;;6126534;28;84423;-68
2021/11/29 08:37:34;;;;;;;33.45;17.00;;;22.60;51.50;;;;;;6127431;28;83211;-70
2021/11/29 08:40:34;;;;;;;35.00;16.27;;;22.60;51.60;;;;;;6125541;28;83833;-68
2021/11/29 08:43:38;;;;;;;30.35;16.27;;;22.60;51.40;;;;;;6130251;28;83683;-68
2021/11/29 08:46:47;;;;;;;25.20;13.73;;;22.50;51.30;;;;;;6126238;28;84132;-69
2021/11/29 08:49:48;;;;;;;24.13;12.85;;;22.50;51.40;;;;;;6126682;28;83850;-69
2021/11/29 08:52:48;;;;;;;26.35;13.82;;;22.50;51.90;;;;;;6126965;28;82715;-70
2021/11/29 08:55:49;;;;;;;24.70;13.43;;;22.50;50.90;;;;;;6128836;28;83289;-70
2021/11/29 08:58:49;;;;;;;22.10;11.65;;;22.50;51.20;;;;;;6125596;28;83818;-75
2021/11/29 09:01:50;;;;;;;21.85;12.30;;;22.60;51.10;;;;;;6121095;28;84965;-69
2021/11/29 09:04:50;;;;;;;18.80;11.18;;;22.50;51.10;;;;;;6125938;28;85232;-70
2021/11/29 09:07:51;;;;;;;20.83;10.77;;;22.50;51.00;;;;;;6126420;28;83853;-68
2021/11/29 09:10:51;;;;;;;17.67;9.25;;;22.50;51.30;;;;;;6133643;28;85007;-68
2021/11/29 09:13:52;;;;;;;18.85;9.48;;;22.60;50.80;;;;;;6137450;28;82925;-67
2021/11/29 09:16:52;;;;;;;13.27;7.70;;;22.60;51.10;;;;;;6136173;28;80802;-69
2021/11/29 09:19:53;;;;;;;14.88;8.32;;;22.60;50.80;;;;;;6136045;28;81158;-68
2021/11/29 09:22:53;;;;;;;14.95;8.50;;;22.60;51.00;;;;;;6133479;28;80776;-68
2021/11/29 09:25:54;;;;;;;11.73;7.05;;;22.70;50.50;;;;;;6135071;28;81500;-70
2021/11/29 09:28:54;;;;;;;12.55;7.32;;;22.70;50.40;;;;;;6139417;28;80539;-68
2021/11/29 09:31:56;;;;;;;12.20;7.35;;;22.70;50.30;;;;;;6140890;28;80527;-68
2021/11/29 09:34:56;;;;;;;13.07;7.82;;;22.70;50.40;;;;;;6131472;28;80609;-69
2021/11/29 09:37:57;;;;;;;14.38;7.47;;;22.70;50.20;;;;;;6137321;28;80617;-68
2021/11/29 09:40:58;;;;;;;11.18;6.63;;;22.70;50.00;;;;;;6136751;28;80703;-69
2021/11/29 09:44:00;;;;;;;11.00;6.65;;;22.70;49.70;;;;;;6140809;28;80587;-69
2021/11/29 09:47:01;;;;;;;9.45;6.05;;;22.70;49.70;;;;;;6141618;28;82350;-71
2021/11/29 09:50:01;;;;;;;8.73;5.80;;;22.70;49.80;;;;;;6135396;28;81173;-69
2021/11/29 09:53:02;;;;;;;9.70;5.70;;;22.70;50.10;;;;;;6138809;28;80736;-65
2021/11/29 09:56:02;;;;;;;10.50;6.13;;;22.70;49.60;;;;;;6143548;28;81416;-68
2021/11/29 09:59:03;;;;;;;8.63;5.15;;;22.70;49.60;;;;;;6140055;28;81600;-68
2021/11/29 10:02:08;;;;;;;7.50;5.20;;;22.70;50.00;;;;;;6130703;28;81993;-72
2021/11/29 10:05:08;;;;;;;8.90;6.17;;;22.70;50.10;;;;;;6131628;28;80966;-70
2021/11/29 10:08:09;;;;;;;8.25;5.07;;;22.80;50.00;;;;;;6130448;28;81530;-69
2021/11/29 10:11:11;;;;;;;7.85;5.00;;;22.80;50.10;;;;;;6132950;28;80666;-69
2021/11/29 10:14:12;;;;;;;8.30;5.28;;;22.80;49.80;;;;;;6134400;28;80636;-67
2021/11/29 10:17:12;;;;;;;8.00;5.22;;;22.80;50.00;;;;;;6137458;28;81082;-69
2021/11/29 10:20:13;;;;;;;6.45;4.15;;;22.80;50.20;;;;;;6135197;28;80832;-68
2021/11/29 10:23:14;;;;;;;6.75;5.25;;;22.80;50.20;;;;;;6139832;28;81857;-69
2021/11/29 10:26:15;;;;;;;8.63;4.97;;;22.80;50.10;;;;;;6134450;28;80253;-71
2021/11/29 10:29:15;;;;;;;8.75;5.13;;;22.80;50.10;;;;;;6143664;28;80686;-67
2021/11/29 10:32:16;;;;;;;8.35;4.53;;;22.80;50.20;;;;;;6134250;28;80806;-64
2021/11/29 10:35:16;;;;;;;6.80;4.75;;;22.80;50.50;;;;;;6134938;28;86542;-68
2021/11/29 10:38:17;;;;;;;6.78;4.07;;;22.80;50.40;;;;;;6132666;28;84997;-69
2021/11/29 10:41:18;;;;;;;14.25;4.13;;;22.80;50.30;;;;;;6134521;28;81158;-67
2021/11/29 10:44:18;;;;;;;9.10;4.15;;;22.80;50.90;;;;;;6129922;28;83961;-69
2021/11/29 10:47:19;;;;;;;5.75;4.70;;;22.80;50.90;;;;;;6125428;28;80752;-70
2021/11/29 10:50:20;;;;;;;7.25;4.20;;;22.80;50.90;;;;;;6135613;28;80921;-69
2021/11/29 10:53:20;;;;;;;6.88;4.70;;;22.80;52.40;;;;;;6135556;28;80954;-69
2021/11/29 10:56:21;;;;;;;6.32;4.72;;;22.80;52.00;;;;;;6134422;28;80275;-72
2021/11/29 10:59:21;;;;;;;7.63;4.22;;;22.80;52.50;;;;;;6143792;28;81046;-70
2021/11/29 11:02:22;;;;;;;5.80;4.07;;;22.80;52.40;;;;;;6134467;28;80518;-70
2021/11/29 11:05:22;;;;;;;6.07;4.03;;;22.80;52.60;;;;;;6139556;28;80528;-68
2021/11/29 11:08:23;;;;;;;5.93;4.50;;;22.80;52.40;;;;;;6136853;28;80693;-69
2021/11/29 11:11:23;;;;;;;8.27;4.65;;;22.80;52.20;;;;;;6137709;28;80512;-70
2021/11/29 11:14:24;;;;;;;10.48;5.40;;;22.80;52.70;;;;;;6134984;28;81682;-68
2021/11/29 11:17:24;;;;;;;7.38;4.22;;;22.80;53.30;;;;;;6136928;28;80326;-68
2021/11/29 11:20:25;;;;;;;8.93;4.75;;;22.80;53.50;;;;;;6130930;28;80396;-68
2021/11/29 11:23:26;;;;;;;9.70;4.97;;;22.80;53.30;;;;;;6130097;28;83044;-68
2021/11/29 11:26:26;;;;;;;7.95;4.50;;;22.80;52.90;;;;;;6135659;28;80290;-68
2021/11/29 11:29:27;;;;;;;6.05;4.47;;;22.80;53.10;;;;;;6136323;28;81078;-67
2021/11/29 11:32:27;;;;;;;7.70;4.90;;;22.80;53.20;;;;;;6135896;28;80743;-67
2021/11/29 11:35:29;;;;;;;6.07;4.25;;;22.80;53.20;;;;;;6143953;28;80485;-68
2021/11/29 11:38:29;;;;;;;7.28;4.63;;;22.80;52.90;;;;;;6137018;28;82721;-68
2021/11/29 11:41:30;;;;;;;6.30;3.80;;;22.80;53.00;;;;;;6140879;28;82349;-67
2021/11/29 11:44:31;;;;;;;7.68;4.18;;;22.80;52.80;;;;;;6138064;28;80811;-67
2021/11/29 11:47:31;;;;;;;6.20;4.20;;;22.70;52.70;;;;;;6132738;28;81861;-67
2021/11/29 11:50:33;;;;;;;5.70;4.32;;;22.70;52.60;;;;;;6128559;28;80861;-67
2021/11/29 11:53:36;;;;;;;7.20;3.80;;;22.70;52.60;;;;;;6135195;28;80352;-67
2021/11/29 11:56:37;;;;;;;7.15;4.22;;;22.70;52.70;;;;;;6135673;28;82725;-67
2021/11/29 11:59:38;;;;;;;7.93;4.18;;;22.70;52.60;;;;;;6134461;28;80871;-68
2021/11/29 12:02:38;;;;;;;4.63;3.60;;;22.70;52.20;;;;;;6142618;28;80268;-68
2021/11/29 12:05:39;;;;;;;6.93;4.70;;;22.70;52.30;;;;;;6133338;28;80444;-68
2021/11/29 12:08:40;;;;;;;4.85;3.70;;;22.70;52.30;;;;;;6131727;28;80420;-68
2021/11/29 12:11:40;;;;;;;5.93;4.28;;;22.60;52.10;;;;;;6135162;28;81062;-70
2021/11/29 12:14:41;;;;;;;6.43;4.47;;;22.60;52.00;;;;;;6132562;28;81664;-68
2021/11/29 12:17:41;;;;;;;5.32;3.75;;;22.60;51.90;;;;;;6133298;28;81165;-68
2021/11/29 12:20:42;;;;;;;6.63;3.67;;;22.60;52.00;;;;;;6132889;28;81476;-68
2021/11/29 12:23:43;;;;;;;5.60;3.40;;;22.60;51.90;;;;;;6132668;28;81565;-66
2021/11/29 12:26:47;;;;;;;4.93;4.10;;;22.60;51.90;;;;;;6140639;28;80622;-67
2021/11/29 12:29:47;;;;;;;5.25;3.83;;;22.60;51.90;;;;;;6147703;28;80507;-67
2021/11/29 12:32:48;;;;;;;10.85;4.13;;;22.60;52.70;;;;;;6133106;28;81334;-67
2021/11/29 12:35:48;;;;;;;5.57;3.78;;;22.60;52.00;;;;;;6124471;28;81925;-69
2021/11/29 12:38:49;;;;;;;9.50;5.05;;;22.60;52.10;;;;;;6135605;28;82052;-67
2021/11/29 12:41:49;;;;;;;6.75;4.18;;;22.60;52.10;;;;;;6136249;28;80446;-67
2021/11/29 12:44:50;;;;;;;6.30;4.20;;;22.60;52.20;;;;;;6128996;28;81848;-67
2021/11/29 12:47:58;;;;;;;6.45;4.57;;;22.60;51.80;;;;;;6129224;28;81141;-69
2021/11/29 12:51:00;;;;;;;5.57;4.03;;;22.60;51.90;;;;;;6135780;28;80499;-68
2021/11/29 12:54:00;;;;;;;7.60;4.22;;;22.50;52.00;;;;;;6134021;28;80647;-68
2021/11/29 12:57:01;;;;;;;6.07;3.95;;;22.50;52.00;;;;;;6129810;28;82999;-68
2021/11/29 13:00:02;;;;;;;4.63;3.55;;;22.50;51.90;;;;;;6129592;28;81661;-67
2021/11/29 13:03:02;;;;;;;6.40;3.92;;;22.50;51.80;;;;;;6135093;28;81514;-68
2021/11/29 13:06:03;;;;;;;5.00;3.30;;;22.50;51.60;;;;;;6137572;28;82514;-67
2021/11/29 13:09:04;;;;;;;6.72;3.53;;;22.50;51.60;;;;;;6133060;28;81031;-68
2021/11/29 13:12:04;;;;;;;4.90;3.50;;;22.50;51.30;;;;;;6127369;28;80338;-68
2021/11/29 13:15:05;;;;;;;6.32;4.03;;;22.60;51.40;;;;;;6138139;28;80815;-68
2021/11/29 13:18:05;;;;;;;4.43;3.50;;;22.60;51.20;;;;;;6135691;28;80472;-69
2021/11/29 13:21:06;;;;;;;6.03;3.40;;;22.60;51.20;;;;;;6128348;28;80450;-68
2021/11/29 13:24:07;;;;;;;3.40;2.92;;;22.60;50.80;;;;;;6137114;28;82090;-70
2021/11/29 13:27:08;;;;;;;3.90;3.38;;;22.60;50.50;;;;;;6136288;28;80806;-68
2021/11/29 13:30:11;;;;;;;5.32;3.65;;;22.50;51.40;;;;;;6137613;28;80276;-71
2021/11/29 13:33:11;;;;;;;4.95;3.60;;;22.50;51.40;;;;;;6153523;28;80317;-70
2021/11/29 13:36:13;;;;;;;4.55;3.35;;;22.60;52.70;;;;;;6130819;28;81145;-70
2021/11/29 13:39:13;;;;;;;28.52;14.98;;;22.60;53.40;;;;;;6138329;28;80484;-71
2021/11/29 13:42:14;;;;;;;144.07;75.60;;;22.60;53.30;;;;;;6131062;28;83468;-70
2021/11/29 13:45:15;;;;;;;211.02;106.35;;;22.60;53.50;;;;;;6130352;28;83114;-70
2021/11/29 13:48:16;;;;;;;235.77;114.57;;;22.60;54.10;;;;;;6132060;28;86369;-66
2021/11/29 13:51:16;;;;;;;197.32;93.00;;;22.60;54.10;;;;;;6131671;28;86430;-69
2021/11/29 13:54:17;;;;;;;145.35;71.43;;;22.70;54.20;;;;;;6133620;28;86594;-70
2021/11/29 13:57:17;;;;;;;126.97;60.80;;;22.60;54.30;;;;;;6129708;28;83383;-71
2021/11/29 14:00:18;;;;;;;107.82;50.92;;;22.70;54.40;;;;;;6126621;28;83493;-70
2021/11/29 14:03:23;;;;;;;92.40;42.55;;;22.70;54.70;;;;;;6120602;28;83098;-71
2021/11/29 14:06:24;;;;;;;73.03;37.10;;;22.60;54.40;;;;;;6131967;28;86669;-71
2021/11/29 14:09:25;;;;;;;64.75;31.05;;;22.60;54.60;;;;;;6133029;28;83184;-74
2021/11/29 14:12:29;;;;;;;52.67;26.27;;;22.70;54.60;;;;;;6132091;28;84721;-70
2021/11/29 14:15:32;;;;;;;48.00;23.05;;;22.70;54.60;;;;;;6124564;28;83042;-72
2021/11/29 14:18:33;;;;;;;41.90;21.23;;;22.60;54.50;;;;;;6141668;28;83335;-72
2021/11/29 14:21:36;;;;;;;37.33;19.20;;;22.70;54.40;;;;;;6142326;28;82931;-71
2021/11/29 14:24:37;;;;;;;30.77;16.52;;;22.70;54.70;;;;;;6121844;28;87651;-71
2021/11/29 14:27:37;;;;;;;27.33;15.50;;;22.60;55.00;;;;;;6133612;28;84091;-72
2021/11/29 14:30:38;;;;;;;28.15;14.65;;;22.70;54.80;;;;;;6135537;28;83441;-72
2021/11/29 14:33:38;;;;;;;23.00;11.93;;;22.70;54.80;;;;;;6130995;28;83114;-72
2021/11/29 14:36:41;;;;;;;24.15;11.60;;;22.70;54.70;;;;;;6132023;28;82954;-72
2021/11/29 14:39:42;;;;;;;20.92;10.90;;;22.70;54.90;;;;;;6125478;28;83110;-76
2021/11/29 14:42:42;;;;;;;17.42;9.35;;;22.70;54.80;;;;;;6130476;28;83169;-72
2021/11/29 14:45:43;;;;;;;20.40;9.05;;;22.70;54.90;;;;;;6123718;28;82773;-69
2021/11/29 14:48:44;;;;;;;16.20;8.25;;;22.70;55.40;;;;;;6129245;28;80785;-71
2021/11/29 14:51:45;;;;;;;14.63;7.47;;;22.70;54.70;;;;;;6131823;28;80509;-69
2021/11/29 14:54:45;;;;;;;11.45;6.50;;;22.70;54.60;;;;;;6128959;28;81331;-69
2021/11/29 14:57:46;;;;;;;10.75;6.28;;;22.70;54.80;;;;;;6135726;28;80810;-69
2021/11/29 15:00:46;;;;;;;9.35;5.30;;;22.70;54.80;;;;;;6126822;28;80255;-69
2021/11/29 15:03:47;;;;;;;8.80;5.47;;;22.70;55.00;;;;;;6137292;28;80431;-72
2021/11/29 15:06:47;;;;;;;8.60;5.25;;;22.80;54.70;;;;;;6127874;28;80511;-69
2021/11/29 15:09:48;;;;;;;9.80;5.20;;;22.80;54.80;;;;;;6133942;28;80637;-69
2021/11/29 15:12:48;;;;;;;5.57;3.92;;;22.80;55.10;;;;;;6123641;28;80616;-74
2021/11/29 15:15:49;;;;;;;5.25;3.95;;;22.80;55.20;;;;;;6133871;28;81651;-71
2021/11/29 15:18:49;;;;;;;6.28;4.53;;;22.80;55.30;;;;;;6132602;28;83179;-70
2021/11/29 15:21:50;;;;;;;6.45;4.28;;;22.80;54.30;;;;;;6137124;28;80495;-70
2021/11/29 15:24:51;;;;;;;6.45;3.70;;;22.80;54.10;;;;;;6134085;28;80650;-70
2021/11/29 15:27:51;;;;;;;6.65;3.92;;;22.80;54.40;;;;;;6130009;28;81621;-70